sensor_id;sensor_type;location;lat;lon;timestamp;temperature;humidity
53264;DHT22;39153;52.680;6.172;2024-02-16T00:02:18;11.70;99.90
53264;DHT22;39153;52.680;6.172;2024-02-16T00:04:44;11.80;99.90
53264;DHT22;39153;52.680;6.172;2024-02-16T00:07:09;11.70;99.90
53264;DHT22;39153;52.680;6.172;2024-02-16T00:09:36;11.80;99.90
53264;DHT22;39153;52.680;6.172;2024-02-16T00:12:01;11.60;99.90
53264;DHT22;39153;52.680;6.172;2024-02-16T00:14:27;11.60;99.90
53264;DHT22;39153;52.680;6.172;2024-02-16T00:16:53;11.60;99.90
53264;DHT22;39153;52.680;6.172;2024-02-16T00:19:30;11.50;99.90
53264;DHT22;39153;52.680;6.172;2024-02-16T00:21:56;11.70;99.90
53264;DHT22;39153;52.680;6.172;2024-02-16T00:24:22;11.60;99.90
53264;DHT22;39153;52.680;6.172;2024-02-16T00:26:48;11.70;99.90
53264;DHT22;39153;52.680;6.172;2024-02-16T00:29:15;11.60;99.90
53264;DHT22;39153;52.680;6.172;2024-02-16T00:31:40;11.60;99.90
53264;DHT22;39153;52.680;6.172;2024-02-16T00:34:06;11.40;99.90
53264;DHT22;39153;52.680;6.172;2024-02-16T00:36:31;11.60;99.90
53264;DHT22;39153;52.680;6.172;2024-02-16T00:38:59;11.50;99.90
53264;DHT22;39153;52.680;6.172;2024-02-16T00:41:25;11.40;99.90
53264;DHT22;39153;52.680;6.172;2024-02-16T00:43:52;11.40;99.90
53264;DHT22;39153;52.680;6.172;2024-02-16T00:46:18;11.40;99.90
53264;DHT22;39153;52.680;6.172;2024-02-16T00:48:43;11.50;99.90
53264;DHT22;39153;52.680;6.172;2024-02-16T00:51:09;11.40;99.90
53264;DHT22;39153;52.680;6.172;2024-02-16T00:53:35;11.60;99.90
53264;DHT22;39153;52.680;6.172;2024-02-16T00:56:00;11.50;99.90
53264;DHT22;39153;52.680;6.172;2024-02-16T00:58:26;11.50;99.90
53264;DHT22;39153;52.680;6.172;2024-02-16T01:00:51;11.60;99.90
53264;DHT22;39153;52.680;6.172;2024-02-16T01:03:18;11.60;99.90
53264;DHT22;39153;52.680;6.172;2024-02-16T01:05:44;11.40;99.90
53264;DHT22;39153;52.680;6.172;2024-02-16T01:08:10;11.50;99.90
53264;DHT22;39153;52.680;6.172;2024-02-16T01:10:35;11.40;99.90
53264;DHT22;39153;52.680;6.172;2024-02-16T01:13:01;11.40;99.90
53264;DHT22;39153;52.680;6.172;2024-02-16T01:15:29;11.50;99.90
53264;DHT22;39153;52.680;6.172;2024-02-16T01:17:54;11.30;99.90
53264;DHT22;39153;52.680;6.172;2024-02-16T01:20:20;11.40;99.90
53264;DHT22;39153;52.680;6.172;2024-02-16T01:22:45;11.30;99.90
53264;DHT22;39153;52.680;6.172;2024-02-16T01:25:11;11.40;99.90
53264;DHT22;39153;52.680;6.172;2024-02-16T01:27:37;11.30;99.90
53264;DHT22;39153;52.680;6.172;2024-02-16T01:30:03;11.40;99.90
53264;DHT22;39153;52.680;6.172;2024-02-16T01:32:29;11.20;99.90
53264;DHT22;39153;52.680;6.172;2024-02-16T01:34:54;11.40;99.90
53264;DHT22;39153;52.680;6.172;2024-02-16T01:37:20;11.30;99.90
53264;DHT22;39153;52.680;6.172;2024-02-16T01:39:46;11.40;99.90
53264;DHT22;39153;52.680;6.172;2024-02-16T01:42:11;11.30;99.90
53264;DHT22;39153;52.680;6.172;2024-02-16T01:44:37;11.30;99.90
53264;DHT22;39153;52.680;6.172;2024-02-16T01:47:03;11.30;99.90
53264;DHT22;39153;52.680;6.172;2024-02-16T01:49:29;11.30;99.90
53264;DHT22;39153;52.680;6.172;2024-02-16T01:51:56;11.20;99.90
53264;DHT22;39153;52.680;6.172;2024-02-16T01:54:23;11.30;99.90
53264;DHT22;39153;52.680;6.172;2024-02-16T01:56:49;11.30;99.90
53264;DHT22;39153;52.680;6.172;2024-02-16T01:59:16;11.30;99.90
53264;DHT22;39153;52.680;6.172;2024-02-16T02:01:42;11.20;99.90
53264;DHT22;39153;52.680;6.172;2024-02-16T02:04:08;11.30;99.90
53264;DHT22;39153;52.680;6.172;2024-02-16T02:06:34;11.20;99.90
53264;DHT22;39153;52.680;6.172;2024-02-16T02:08:59;11.20;99.90
53264;DHT22;39153;52.680;6.172;2024-02-16T02:11:25;11.10;99.90
53264;DHT22;39153;52.680;6.172;2024-02-16T02:13:51;11.00;99.90
53264;DHT22;39153;52.680;6.172;2024-02-16T02:16:19;11.00;99.90
53264;DHT22;39153;52.680;6.172;2024-02-16T02:18:45;11.00;99.90
53264;DHT22;39153;52.680;6.172;2024-02-16T02:21:11;11.00;99.90
53264;DHT22;39153;52.680;6.172;2024-02-16T02:23:39;11.10;99.90
53264;DHT22;39153;52.680;6.172;2024-02-16T02:26:04;11.10;99.90
53264;DHT22;39153;52.680;6.172;2024-02-16T02:28:30;11.00;99.90
53264;DHT22;39153;52.680;6.172;2024-02-16T02:30:56;11.00;99.90
53264;DHT22;39153;52.680;6.172;2024-02-16T02:33:22;10.90;99.90
53264;DHT22;39153;52.680;6.172;2024-02-16T02:35:47;11.10;99.90
53264;DHT22;39153;52.680;6.172;2024-02-16T02:38:13;11.00;99.90
53264;DHT22;39153;52.680;6.172;2024-02-16T02:40:39;11.10;99.90
53264;DHT22;39153;52.680;6.172;2024-02-16T02:43:04;10.90;99.90
53264;DHT22;39153;52.680;6.172;2024-02-16T02:45:31;10.80;99.90
53264;DHT22;39153;52.680;6.172;2024-02-16T02:47:57;10.90;99.90
53264;DHT22;39153;52.680;6.172;2024-02-16T02:50:23;10.90;99.90
53264;DHT22;39153;52.680;6.172;2024-02-16T02:52:49;10.80;99.90
53264;DHT22;39153;52.680;6.172;2024-02-16T02:55:15;11.00;99.90
53264;DHT22;39153;52.680;6.172;2024-02-16T02:57:41;10.90;99.90
53264;DHT22;39153;52.680;6.172;2024-02-16T03:00:08;10.80;99.90
53264;DHT22;39153;52.680;6.172;2024-02-16T03:02:40;10.80;99.90
53264;DHT22;39153;52.680;6.172;2024-02-16T03:05:06;10.90;99.90
53264;DHT22;39153;52.680;6.172;2024-02-16T03:07:33;10.90;99.90
53264;DHT22;39153;52.680;6.172;2024-02-16T03:09:59;10.90;99.90
53264;DHT22;39153;52.680;6.172;2024-02-16T03:12:25;10.70;99.90
53264;DHT22;39153;52.680;6.172;2024-02-16T03:14:51;10.70;99.90
53264;DHT22;39153;52.680;6.172;2024-02-16T03:17:17;10.80;99.90
53264;DHT22;39153;52.680;6.172;2024-02-16T03:19:42;10.70;99.90
53264;DHT22;39153;52.680;6.172;2024-02-16T03:22:08;10.80;99.90
53264;DHT22;39153;52.680;6.172;2024-02-16T03:24:34;10.70;99.90
53264;DHT22;39153;52.680;6.172;2024-02-16T03:26:59;10.80;99.90
53264;DHT22;39153;52.680;6.172;2024-02-16T03:29:26;10.70;99.90
53264;DHT22;39153;52.680;6.172;2024-02-16T03:31:52;10.70;99.90
53264;DHT22;39153;52.680;6.172;2024-02-16T03:34:17;10.70;99.90
53264;DHT22;39153;52.680;6.172;2024-02-16T03:36:43;10.70;99.90
53264;DHT22;39153;52.680;6.172;2024-02-16T03:39:09;10.80;99.90
53264;DHT22;39153;52.680;6.172;2024-02-16T03:41:35;10.80;99.90
53264;DHT22;39153;52.680;6.172;2024-02-16T03:44:01;10.80;99.90
53264;DHT22;39153;52.680;6.172;2024-02-16T03:46:26;10.80;99.90
53264;DHT22;39153;52.680;6.172;2024-02-16T03:48:52;10.80;99.90
53264;DHT22;39153;52.680;6.172;2024-02-16T03:51:18;10.70;99.90
53264;DHT22;39153;52.680;6.172;2024-02-16T03:53:44;10.80;99.90
53264;DHT22;39153;52.680;6.172;2024-02-16T03:56:18;10.90;99.90
53264;DHT22;39153;52.680;6.172;2024-02-16T03:58:44;10.90;99.90
53264;DHT22;39153;52.680;6.172;2024-02-16T04:01:10;10.80;99.90
53264;DHT22;39153;52.680;6.172;2024-02-16T04:03:35;10.70;99.90
53264;DHT22;39153;52.680;6.172;2024-02-16T04:06:01;10.70;99.90
53264;DHT22;39153;52.680;6.172;2024-02-16T04:08:29;10.80;99.90
53264;DHT22;39153;52.680;6.172;2024-02-16T04:10:55;10.80;99.90
53264;DHT22;39153;52.680;6.172;2024-02-16T04:13:21;10.70;99.90
53264;DHT22;39153;52.680;6.172;2024-02-16T04:15:46;10.70;99.90
53264;DHT22;39153;52.680;6.172;2024-02-16T04:18:12;10.70;99.90
53264;DHT22;39153;52.680;6.172;2024-02-16T04:20:38;10.70;99.90
53264;DHT22;39153;52.680;6.172;2024-02-16T04:23:06;10.70;99.90
53264;DHT22;39153;52.680;6.172;2024-02-16T04:25:32;10.70;99.90
53264;DHT22;39153;52.680;6.172;2024-02-16T04:27:57;10.70;99.90
53264;DHT22;39153;52.680;6.172;2024-02-16T04:30:23;10.80;99.90
53264;DHT22;39153;52.680;6.172;2024-02-16T04:32:49;10.80;99.90
53264;DHT22;39153;52.680;6.172;2024-02-16T04:35:14;10.80;99.90
53264;DHT22;39153;52.680;6.172;2024-02-16T04:37:41;10.70;99.90
53264;DHT22;39153;52.680;6.172;2024-02-16T04:40:06;10.80;99.90
53264;DHT22;39153;52.680;6.172;2024-02-16T04:42:33;10.70;99.90
53264;DHT22;39153;52.680;6.172;2024-02-16T04:44:59;10.80;99.90
53264;DHT22;39153;52.680;6.172;2024-02-16T04:47:27;10.70;99.90
53264;DHT22;39153;52.680;6.172;2024-02-16T04:49:53;10.70;99.90
53264;DHT22;39153;52.680;6.172;2024-02-16T04:52:19;10.70;99.90
53264;DHT22;39153;52.680;6.172;2024-02-16T04:54:44;10.70;99.90
53264;DHT22;39153;52.680;6.172;2024-02-16T04:57:10;10.80;99.90
53264;DHT22;39153;52.680;6.172;2024-02-16T04:59:35;10.80;99.90
53264;DHT22;39153;52.680;6.172;2024-02-16T05:02:01;10.80;99.90
53264;DHT22;39153;52.680;6.172;2024-02-16T05:04:29;10.70;99.90
53264;DHT22;39153;52.680;6.172;2024-02-16T05:06:55;10.80;99.90
53264;DHT22;39153;52.680;6.172;2024-02-16T05:09:23;10.70;99.90
53264;DHT22;39153;52.680;6.172;2024-02-16T05:11:50;10.80;99.90
53264;DHT22;39153;52.680;6.172;2024-02-16T05:14:16;10.80;99.90
53264;DHT22;39153;52.680;6.172;2024-02-16T05:16:46;10.80;99.90
53264;DHT22;39153;52.680;6.172;2024-02-16T05:19:12;10.80;99.90
53264;DHT22;39153;52.680;6.172;2024-02-16T05:21:38;10.90;99.90
53264;DHT22;39153;52.680;6.172;2024-02-16T05:24:04;10.80;99.90
53264;DHT22;39153;52.680;6.172;2024-02-16T05:26:30;10.80;99.90
53264;DHT22;39153;52.680;6.172;2024-02-16T05:28:56;10.80;99.90
53264;DHT22;39153;52.680;6.172;2024-02-16T05:31:21;10.90;99.90
53264;DHT22;39153;52.680;6.172;2024-02-16T05:33:51;10.80;99.90
53264;DHT22;39153;52.680;6.172;2024-02-16T05:36:18;10.90;99.90
53264;DHT22;39153;52.680;6.172;2024-02-16T05:38:48;10.90;99.90
53264;DHT22;39153;52.680;6.172;2024-02-16T05:41:15;10.90;99.90
53264;DHT22;39153;52.680;6.172;2024-02-16T05:43:43;10.90;99.90
53264;DHT22;39153;52.680;6.172;2024-02-16T05:46:16;11.00;99.90
53264;DHT22;39153;52.680;6.172;2024-02-16T05:48:42;11.10;99.90
53264;DHT22;39153;52.680;6.172;2024-02-16T05:51:08;11.00;99.90
53264;DHT22;39153;52.680;6.172;2024-02-16T05:53:34;11.00;99.90
53264;DHT22;39153;52.680;6.172;2024-02-16T05:56:00;11.00;99.90
53264;DHT22;39153;52.680;6.172;2024-02-16T05:58:26;10.90;99.90
53264;DHT22;39153;52.680;6.172;2024-02-16T06:00:52;10.90;99.90
53264;DHT22;39153;52.680;6.172;2024-02-16T06:03:18;11.00;99.90
53264;DHT22;39153;52.680;6.172;2024-02-16T06:05:44;11.00;99.90
53264;DHT22;39153;52.680;6.172;2024-02-16T06:08:10;10.90;99.90
53264;DHT22;39153;52.680;6.172;2024-02-16T06:10:36;10.90;99.90
53264;DHT22;39153;52.680;6.172;2024-02-16T06:13:02;10.90;99.90
53264;DHT22;39153;52.680;6.172;2024-02-16T06:15:28;10.80;99.90
53264;DHT22;39153;52.680;6.172;2024-02-16T06:17:53;10.80;99.90
53264;DHT22;39153;52.680;6.172;2024-02-16T06:20:19;10.80;99.90
53264;DHT22;39153;52.680;6.172;2024-02-16T06:22:45;10.80;99.90
53264;DHT22;39153;52.680;6.172;2024-02-16T06:25:11;10.70;99.90
53264;DHT22;39153;52.680;6.172;2024-02-16T06:27:36;10.70;99.90
53264;DHT22;39153;52.680;6.172;2024-02-16T06:30:03;10.70;99.90
53264;DHT22;39153;52.680;6.172;2024-02-16T06:32:33;10.60;99.90
53264;DHT22;39153;52.680;6.172;2024-02-16T06:34:59;10.60;99.90
53264;DHT22;39153;52.680;6.172;2024-02-16T06:37:24;10.60;99.90
53264;DHT22;39153;52.680;6.172;2024-02-16T06:39:50;10.60;99.90
53264;DHT22;39153;52.680;6.172;2024-02-16T06:42:16;10.50;99.90
53264;DHT22;39153;52.680;6.172;2024-02-16T06:44:41;10.50;99.90
53264;DHT22;39153;52.680;6.172;2024-02-16T06:47:07;10.60;99.90
53264;DHT22;39153;52.680;6.172;2024-02-16T06:49:33;10.60;99.90
53264;DHT22;39153;52.680;6.172;2024-02-16T06:51:58;10.50;99.90
53264;DHT22;39153;52.680;6.172;2024-02-16T06:54:24;10.50;99.90
53264;DHT22;39153;52.680;6.172;2024-02-16T06:56:50;10.50;99.90
53264;DHT22;39153;52.680;6.172;2024-02-16T06:59:18;10.50;99.90
53264;DHT22;39153;52.680;6.172;2024-02-16T07:01:45;10.60;99.90
53264;DHT22;39153;52.680;6.172;2024-02-16T07:04:11;10.60;99.90
53264;DHT22;39153;52.680;6.172;2024-02-16T07:06:36;10.50;99.90
53264;DHT22;39153;52.680;6.172;2024-02-16T07:09:02;10.50;99.90
53264;DHT22;39153;52.680;6.172;2024-02-16T07:11:28;10.60;99.90
53264;DHT22;39153;52.680;6.172;2024-02-16T07:13:54;10.50;99.90
53264;DHT22;39153;52.680;6.172;2024-02-16T07:16:20;10.50;99.90
53264;DHT22;39153;52.680;6.172;2024-02-16T07:18:45;10.50;99.90
53264;DHT22;39153;52.680;6.172;2024-02-16T07:21:11;10.60;99.90
53264;DHT22;39153;52.680;6.172;2024-02-16T07:23:37;10.70;99.90
53264;DHT22;39153;52.680;6.172;2024-02-16T07:26:04;10.60;99.90
53264;DHT22;39153;52.680;6.172;2024-02-16T07:28:29;10.70;99.90
53264;DHT22;39153;52.680;6.172;2024-02-16T07:30:57;10.70;99.90
53264;DHT22;39153;52.680;6.172;2024-02-16T07:33:23;10.60;99.90
53264;DHT22;39153;52.680;6.172;2024-02-16T07:35:50;10.70;99.90
53264;DHT22;39153;52.680;6.172;2024-02-16T07:38:17;10.90;99.90
53264;DHT22;39153;52.680;6.172;2024-02-16T07:40:43;10.80;99.90
53264;DHT22;39153;52.680;6.172;2024-02-16T07:43:11;10.80;99.90
53264;DHT22;39153;52.680;6.172;2024-02-16T07:45:36;10.90;99.90
53264;DHT22;39153;52.680;6.172;2024-02-16T07:48:02;10.90;99.90
53264;DHT22;39153;52.680;6.172;2024-02-16T07:50:31;11.00;99.90
53264;DHT22;39153;52.680;6.172;2024-02-16T07:52:57;10.80;99.90
53264;DHT22;39153;52.680;6.172;2024-02-16T07:55:27;10.90;99.90
53264;DHT22;39153;52.680;6.172;2024-02-16T07:57:53;11.00;99.90
53264;DHT22;39153;52.680;6.172;2024-02-16T08:00:18;10.90;99.90
53264;DHT22;39153;52.680;6.172;2024-02-16T08:02:45;11.10;99.90
53264;DHT22;39153;52.680;6.172;2024-02-16T08:05:11;11.00;99.90
53264;DHT22;39153;52.680;6.172;2024-02-16T08:07:41;11.10;99.90
53264;DHT22;39153;52.680;6.172;2024-02-16T08:10:08;11.10;99.90
53264;DHT22;39153;52.680;6.172;2024-02-16T08:12:34;11.20;99.90
53264;DHT22;39153;52.680;6.172;2024-02-16T08:15:04;11.20;99.90
53264;DHT22;39153;52.680;6.172;2024-02-16T08:17:33;11.20;99.90
53264;DHT22;39153;52.680;6.172;2024-02-16T08:19:59;11.20;99.90
53264;DHT22;39153;52.680;6.172;2024-02-16T08:22:25;11.20;99.90
53264;DHT22;39153;52.680;6.172;2024-02-16T08:24:51;11.30;99.90
53264;DHT22;39153;52.680;6.172;2024-02-16T08:27:17;11.30;99.90
53264;DHT22;39153;52.680;6.172;2024-02-16T08:29:43;11.20;99.90
53264;DHT22;39153;52.680;6.172;2024-02-16T08:32:09;11.30;99.90
53264;DHT22;39153;52.680;6.172;2024-02-16T08:34:35;11.30;99.90
53264;DHT22;39153;52.680;6.172;2024-02-16T08:37:05;11.30;99.90
53264;DHT22;39153;52.680;6.172;2024-02-16T08:39:31;11.40;99.90
53264;DHT22;39153;52.680;6.172;2024-02-16T08:41:57;11.50;99.90
53264;DHT22;39153;52.680;6.172;2024-02-16T08:44:24;11.50;99.90
53264;DHT22;39153;52.680;6.172;2024-02-16T08:46:50;11.40;99.90
53264;DHT22;39153;52.680;6.172;2024-02-16T08:49:16;11.40;99.90
53264;DHT22;39153;52.680;6.172;2024-02-16T08:51:43;11.50;99.90
53264;DHT22;39153;52.680;6.172;2024-02-16T08:54:09;11.40;99.90
53264;DHT22;39153;52.680;6.172;2024-02-16T08:56:35;11.60;99.90
53264;DHT22;39153;52.680;6.172;2024-02-16T08:59:01;11.70;99.90
53264;DHT22;39153;52.680;6.172;2024-02-16T09:01:35;11.90;99.90
53264;DHT22;39153;52.680;6.172;2024-02-16T09:04:01;11.90;99.90
53264;DHT22;39153;52.680;6.172;2024-02-16T09:06:27;11.90;99.90
53264;DHT22;39153;52.680;6.172;2024-02-16T09:08:54;12.00;99.90
53264;DHT22;39153;52.680;6.172;2024-02-16T09:11:19;12.10;99.90
53264;DHT22;39153;52.680;6.172;2024-02-16T09:13:45;12.20;99.90
53264;DHT22;39153;52.680;6.172;2024-02-16T09:16:11;12.30;99.90
53264;DHT22;39153;52.680;6.172;2024-02-16T09:18:37;12.50;99.90
53264;DHT22;39153;52.680;6.172;2024-02-16T09:21:06;12.30;99.90
53264;DHT22;39153;52.680;6.172;2024-02-16T09:23:33;12.60;99.90
53264;DHT22;39153;52.680;6.172;2024-02-16T09:25:59;12.50;99.90
53264;DHT22;39153;52.680;6.172;2024-02-16T09:28:25;12.70;99.90
53264;DHT22;39153;52.680;6.172;2024-02-16T09:30:51;12.60;99.90
53264;DHT22;39153;52.680;6.172;2024-02-16T09:33:17;12.70;99.90
53264;DHT22;39153;52.680;6.172;2024-02-16T09:35:43;12.70;99.90
53264;DHT22;39153;52.680;6.172;2024-02-16T09:38:09;12.80;99.90
53264;DHT22;39153;52.680;6.172;2024-02-16T09:40:36;12.80;99.90
53264;DHT22;39153;52.680;6.172;2024-02-16T09:43:02;12.80;99.90
53264;DHT22;39153;52.680;6.172;2024-02-16T09:45:29;13.00;99.90
53264;DHT22;39153;52.680;6.172;2024-02-16T09:47:56;13.10;99.90
53264;DHT22;39153;52.680;6.172;2024-02-16T09:50:22;13.00;99.90
53264;DHT22;39153;52.680;6.172;2024-02-16T09:52:50;13.10;99.90
53264;DHT22;39153;52.680;6.172;2024-02-16T09:55:17;13.10;99.90
53264;DHT22;39153;52.680;6.172;2024-02-16T09:57:43;13.10;99.90
53264;DHT22;39153;52.680;6.172;2024-02-16T10:00:10;13.20;99.90
53264;DHT22;39153;52.680;6.172;2024-02-16T10:02:42;13.30;99.90
53264;DHT22;39153;52.680;6.172;2024-02-16T10:07:37;13.30;99.90
53264;DHT22;39153;52.680;6.172;2024-02-16T10:10:03;13.40;99.90
53264;DHT22;39153;52.680;6.172;2024-02-16T10:12:29;13.40;99.90
53264;DHT22;39153;52.680;6.172;2024-02-16T10:14:55;13.40;99.90
53264;DHT22;39153;52.680;6.172;2024-02-16T10:17:22;13.40;99.90
53264;DHT22;39153;52.680;6.172;2024-02-16T10:19:57;13.50;99.90
53264;DHT22;39153;52.680;6.172;2024-02-16T10:22:23;13.40;99.90
53264;DHT22;39153;52.680;6.172;2024-02-16T10:24:48;13.30;99.90
53264;DHT22;39153;52.680;6.172;2024-02-16T10:27:18;13.40;99.90
53264;DHT22;39153;52.680;6.172;2024-02-16T10:29:46;13.30;99.90
53264;DHT22;39153;52.680;6.172;2024-02-16T10:32:15;13.30;99.90
53264;DHT22;39153;52.680;6.172;2024-02-16T10:34:41;13.20;99.90
53264;DHT22;39153;52.680;6.172;2024-02-16T10:37:08;13.20;99.90
53264;DHT22;39153;52.680;6.172;2024-02-16T10:39:35;13.20;99.90
53264;DHT22;39153;52.680;6.172;2024-02-16T10:42:01;13.20;99.90
53264;DHT22;39153;52.680;6.172;2024-02-16T10:44:28;13.10;99.90
53264;DHT22;39153;52.680;6.172;2024-02-16T10:46:55;13.10;99.90
53264;DHT22;39153;52.680;6.172;2024-02-16T10:49:26;13.00;99.90
53264;DHT22;39153;52.680;6.172;2024-02-16T10:51:55;13.10;99.90
53264;DHT22;39153;52.680;6.172;2024-02-16T10:54:25;13.00;99.90
53264;DHT22;39153;52.680;6.172;2024-02-16T10:56:54;13.00;99.90
53264;DHT22;39153;52.680;6.172;2024-02-16T10:59:20;12.80;99.90
53264;DHT22;39153;52.680;6.172;2024-02-16T11:01:46;12.90;99.90
53264;DHT22;39153;52.680;6.172;2024-02-16T11:04:14;12.80;99.90
53264;DHT22;39153;52.680;6.172;2024-02-16T11:06:53;12.90;99.90
53264;DHT22;39153;52.680;6.172;2024-02-16T11:09:27;12.80;99.90
53264;DHT22;39153;52.680;6.172;2024-02-16T11:11:54;12.80;99.90
53264;DHT22;39153;52.680;6.172;2024-02-16T11:14:22;12.90;99.90
53264;DHT22;39153;52.680;6.172;2024-02-16T11:16:49;12.80;99.90
53264;DHT22;39153;52.680;6.172;2024-02-16T11:19:18;12.60;99.90
53264;DHT22;39153;52.680;6.172;2024-02-16T11:22:04;12.60;99.90
53264;DHT22;39153;52.680;6.172;2024-02-16T11:24:34;12.70;99.90
53264;DHT22;39153;52.680;6.172;2024-02-16T11:27:07;12.60;99.90
53264;DHT22;39153;52.680;6.172;2024-02-16T11:29:38;12.50;99.90
53264;DHT22;39153;52.680;6.172;2024-02-16T11:32:05;12.50;99.90
53264;DHT22;39153;52.680;6.172;2024-02-16T11:34:32;12.30;99.90
53264;DHT22;39153;52.680;6.172;2024-02-16T11:37:00;12.10;99.90
53264;DHT22;39153;52.680;6.172;2024-02-16T11:39:27;12.30;99.90
53264;DHT22;39153;52.680;6.172;2024-02-16T11:42:06;12.10;99.90
53264;DHT22;39153;52.680;6.172;2024-02-16T11:44:33;11.80;99.90
53264;DHT22;39153;52.680;6.172;2024-02-16T11:47:01;11.80;99.90
53264;DHT22;39153;52.680;6.172;2024-02-16T11:49:28;11.90;99.90
53264;DHT22;39153;52.680;6.172;2024-02-16T11:51:55;11.60;99.90
53264;DHT22;39153;52.680;6.172;2024-02-16T11:54:21;11.90;99.90
53264;DHT22;39153;52.680;6.172;2024-02-16T11:56:48;12.10;99.90
53264;DHT22;39153;52.680;6.172;2024-02-16T11:59:17;11.90;99.90
53264;DHT22;39153;52.680;6.172;2024-02-16T12:01:53;11.90;99.90
53264;DHT22;39153;52.680;6.172;2024-02-16T12:04:29;11.80;99.90
53264;DHT22;39153;52.680;6.172;2024-02-16T12:06:59;11.90;99.90
53264;DHT22;39153;52.680;6.172;2024-02-16T12:09:25;12.00;99.90
53264;DHT22;39153;52.680;6.172;2024-02-16T12:11:53;12.00;99.90
53264;DHT22;39153;52.680;6.172;2024-02-16T12:14:21;11.50;99.90
53264;DHT22;39153;52.680;6.172;2024-02-16T12:17:07;11.90;99.90
53264;DHT22;39153;52.680;6.172;2024-02-16T12:19:32;12.00;99.90
53264;DHT22;39153;52.680;6.172;2024-02-16T12:21:58;11.40;99.90
53264;DHT22;39153;52.680;6.172;2024-02-16T12:24:24;11.40;99.90
53264;DHT22;39153;52.680;6.172;2024-02-16T12:26:50;11.60;99.90
53264;DHT22;39153;52.680;6.172;2024-02-16T12:29:17;11.50;99.90
53264;DHT22;39153;52.680;6.172;2024-02-16T12:31:44;11.80;99.90
53264;DHT22;39153;52.680;6.172;2024-02-16T12:34:10;11.70;99.90
53264;DHT22;39153;52.680;6.172;2024-02-16T12:36:40;11.70;99.90
53264;DHT22;39153;52.680;6.172;2024-02-16T12:39:06;12.00;99.90
53264;DHT22;39153;52.680;6.172;2024-02-16T12:41:33;12.00;99.90
53264;DHT22;39153;52.680;6.172;2024-02-16T12:43:59;11.80;99.90
53264;DHT22;39153;52.680;6.172;2024-02-16T12:46:25;11.90;99.90
53264;DHT22;39153;52.680;6.172;2024-02-16T12:48:51;11.50;99.90
53264;DHT22;39153;52.680;6.172;2024-02-16T12:51:18;12.00;99.90
53264;DHT22;39153;52.680;6.172;2024-02-16T12:53:44;11.60;99.90
53264;DHT22;39153;52.680;6.172;2024-02-16T12:56:10;11.80;99.90
53264;DHT22;39153;52.680;6.172;2024-02-16T12:58:36;11.50;99.90
53264;DHT22;39153;52.680;6.172;2024-02-16T13:01:03;11.40;99.90
53264;DHT22;39153;52.680;6.172;2024-02-16T13:03:28;11.60;99.90
53264;DHT22;39153;52.680;6.172;2024-02-16T13:05:54;11.90;99.90
53264;DHT22;39153;52.680;6.172;2024-02-16T13:08:20;11.30;99.90
53264;DHT22;39153;52.680;6.172;2024-02-16T13:10:45;11.60;99.90
53264;DHT22;39153;52.680;6.172;2024-02-16T13:13:11;11.40;99.90
53264;DHT22;39153;52.680;6.172;2024-02-16T13:15:37;11.60;99.90
53264;DHT22;39153;52.680;6.172;2024-02-16T13:18:02;11.70;99.90
53264;DHT22;39153;52.680;6.172;2024-02-16T13:20:28;11.50;99.90
53264;DHT22;39153;52.680;6.172;2024-02-16T13:22:54;11.50;99.90
53264;DHT22;39153;52.680;6.172;2024-02-16T13:25:20;11.50;99.90
53264;DHT22;39153;52.680;6.172;2024-02-16T13:27:46;11.80;99.90
53264;DHT22;39153;52.680;6.172;2024-02-16T13:30:12;11.70;99.90
53264;DHT22;39153;52.680;6.172;2024-02-16T13:32:38;12.00;99.90
53264;DHT22;39153;52.680;6.172;2024-02-16T13:35:07;11.70;99.90
53264;DHT22;39153;52.680;6.172;2024-02-16T13:37:33;11.50;99.90
53264;DHT22;39153;52.680;6.172;2024-02-16T13:39:59;12.10;99.90
53264;DHT22;39153;52.680;6.172;2024-02-16T13:42:24;12.20;99.90
53264;DHT22;39153;52.680;6.172;2024-02-16T13:44:52;11.50;99.90
53264;DHT22;39153;52.680;6.172;2024-02-16T13:47:17;11.50;99.90
53264;DHT22;39153;52.680;6.172;2024-02-16T13:49:43;11.60;99.90
53264;DHT22;39153;52.680;6.172;2024-02-16T13:52:09;11.60;99.90
53264;DHT22;39153;52.680;6.172;2024-02-16T13:54:36;11.50;99.90
53264;DHT22;39153;52.680;6.172;2024-02-16T13:57:01;12.10;99.90
53264;DHT22;39153;52.680;6.172;2024-02-16T13:59:27;11.50;99.90
53264;DHT22;39153;52.680;6.172;2024-02-16T14:01:53;12.00;99.90
53264;DHT22;39153;52.680;6.172;2024-02-16T14:04:19;12.00;99.90
53264;DHT22;39153;52.680;6.172;2024-02-16T14:06:45;11.90;99.90
53264;DHT22;39153;52.680;6.172;2024-02-16T14:09:11;11.80;99.90
53264;DHT22;39153;52.680;6.172;2024-02-16T14:11:40;11.80;99.90
53264;DHT22;39153;52.680;6.172;2024-02-16T14:14:13;11.90;99.90
53264;DHT22;39153;52.680;6.172;2024-02-16T14:16:39;11.80;99.90
53264;DHT22;39153;52.680;6.172;2024-02-16T14:19:05;12.10;99.90
53264;DHT22;39153;52.680;6.172;2024-02-16T14:21:31;11.70;99.90
53264;DHT22;39153;52.680;6.172;2024-02-16T14:23:58;11.80;99.90
53264;DHT22;39153;52.680;6.172;2024-02-16T14:26:24;12.00;99.90
53264;DHT22;39153;52.680;6.172;2024-02-16T14:28:50;12.10;99.90
53264;DHT22;39153;52.680;6.172;2024-02-16T14:31:15;11.70;99.90
53264;DHT22;39153;52.680;6.172;2024-02-16T14:33:42;12.00;99.90
53264;DHT22;39153;52.680;6.172;2024-02-16T14:36:09;12.10;99.90
53264;DHT22;39153;52.680;6.172;2024-02-16T14:38:36;11.70;99.90
53264;DHT22;39153;52.680;6.172;2024-02-16T14:41:02;12.10;99.90
53264;DHT22;39153;52.680;6.172;2024-02-16T14:43:32;12.00;99.90
53264;DHT22;39153;52.680;6.172;2024-02-16T14:46:00;11.90;99.90
53264;DHT22;39153;52.680;6.172;2024-02-16T14:48:27;11.40;99.90
53264;DHT22;39153;52.680;6.172;2024-02-16T14:50:53;11.90;99.90
53264;DHT22;39153;52.680;6.172;2024-02-16T14:53:21;11.50;99.90
53264;DHT22;39153;52.680;6.172;2024-02-16T14:55:51;11.90;99.90
53264;DHT22;39153;52.680;6.172;2024-02-16T14:58:17;11.70;99.90
53264;DHT22;39153;52.680;6.172;2024-02-16T15:00:42;11.60;99.90
53264;DHT22;39153;52.680;6.172;2024-02-16T15:03:12;11.40;99.90
53264;DHT22;39153;52.680;6.172;2024-02-16T15:05:39;11.60;99.90
53264;DHT22;39153;52.680;6.172;2024-02-16T15:08:05;11.30;99.90
53264;DHT22;39153;52.680;6.172;2024-02-16T15:10:31;11.20;99.90
53264;DHT22;39153;52.680;6.172;2024-02-16T15:12:57;11.30;99.90
53264;DHT22;39153;52.680;6.172;2024-02-16T15:15:23;11.60;99.90
53264;DHT22;39153;52.680;6.172;2024-02-16T15:17:49;11.60;99.90
53264;DHT22;39153;52.680;6.172;2024-02-16T15:20:14;11.30;99.90
53264;DHT22;39153;52.680;6.172;2024-02-16T15:22:40;11.30;99.90
53264;DHT22;39153;52.680;6.172;2024-02-16T15:25:07;11.40;99.90
53264;DHT22;39153;52.680;6.172;2024-02-16T15:27:33;11.30;99.90
53264;DHT22;39153;52.680;6.172;2024-02-16T15:30:00;11.10;99.90